Time;durP1;ratioP1;P1;durP2;ratioP2;P2;SDS_P1;SDS_P2;PMS_P1;PMS_P2;Temp;Humidity;BMP_temperature;BMP_pressure;BME280_temperature;BME280_humidity;BME280_pressure;Samples;Min_cycle;Max_cycle;Signal;HPM_P1;HPM_P2
2022/02/15 00:01:15;;;;;;;12.73;6.80;;;6.10;99.90;;;;;;5019781;28;20026;-76
2022/02/15 00:03:40;;;;;;;7.65;4.30;;;6.10;99.90;;;;;;5018356;28;20100;-75
2022/02/15 00:06:06;;;;;;;11.20;6.20;;;6.00;99.90;;;;;;5021224;28;20022;-75
2022/02/15 00:08:31;;;;;;;5.75;3.80;;;6.00;99.90;;;;;;5019703;28;20108;-75
2022/02/15 00:10:57;;;;;;;13.20;7.65;;;6.00;99.90;;;;;;5015543;28;20080;-76
2022/02/15 00:13:22;;;;;;;10.70;5.63;;;6.00;99.90;;;;;;5017011;28;20026;-77
2022/02/15 00:15:48;;;;;;;10.65;6.60;;;6.00;99.90;;;;;;5018879;28;20061;-76
2022/02/15 00:18:14;;;;;;;16.77;7.85;;;6.00;99.90;;;;;;5017200;28;20032;-76
2022/02/15 00:20:41;;;;;;;13.85;7.18;;;6.00;99.90;;;;;;5014880;28;20038;-76
2022/02/15 00:23:07;;;;;;;9.57;5.20;;;6.00;99.90;;;;;;5020865;28;20064;-76
2022/02/15 00:25:32;;;;;;;9.18;6.05;;;6.00;99.90;;;;;;5017499;28;20037;-76
2022/02/15 00:27:58;;;;;;;11.13;5.00;;;6.00;99.90;;;;;;5023323;28;20387;-76
2022/02/15 00:30:23;;;;;;;6.15;5.03;;;6.10;99.90;;;;;;5018526;28;20503;-76
2022/02/15 00:32:49;;;;;;;7.05;4.68;;;6.10;99.90;;;;;;5017018;28;20029;-76
2022/02/15 00:35:15;;;;;;;6.47;4.57;;;6.10;99.90;;;;;;5018806;28;20321;-76
2022/02/15 00:37:41;;;;;;;8.80;5.15;;;6.10;99.90;;;;;;5013604;28;20471;-76
2022/02/15 00:40:08;;;;;;;8.30;6.30;;;6.00;99.90;;;;;;5012811;28;20116;-76
2022/02/15 00:42:34;;;;;;;8.48;5.43;;;6.10;99.90;;;;;;5019608;28;20080;-76
2022/02/15 00:44:59;;;;;;;9.00;4.82;;;6.00;99.90;;;;;;5016264;28;20018;-76
2022/02/15 00:47:25;;;;;;;6.45;4.82;;;5.90;99.90;;;;;;5015735;28;20486;-76
2022/02/15 00:49:51;;;;;;;7.72;5.18;;;5.90;99.90;;;;;;5016067;28;20025;-76
2022/02/15 00:52:16;;;;;;;8.00;5.13;;;5.90;99.90;;;;;;5017476;28;20029;-77
2022/02/15 00:54:42;;;;;;;6.38;4.75;;;5.90;99.90;;;;;;5011972;28;20105;-77
2022/02/15 00:57:10;;;;;;;6.60;5.00;;;6.00;99.90;;;;;;5018486;28;20080;-77
2022/02/15 00:59:36;;;;;;;8.80;5.18;;;6.00;99.90;;;;;;5016575;28;20030;-77
2022/02/15 01:02:02;;;;;;;7.65;5.40;;;5.90;99.90;;;;;;5020508;28;20029;-77
2022/02/15 01:04:27;;;;;;;8.65;6.22;;;5.90;99.90;;;;;;5017972;28;20068;-77
2022/02/15 01:06:53;;;;;;;8.40;6.15;;;5.80;99.90;;;;;;5011221;28;20029;-77
2022/02/15 01:09:19;;;;;;;8.35;5.85;;;5.80;99.90;;;;;;5019185;28;20061;-77
2022/02/15 01:11:44;;;;;;;7.47;6.18;;;5.80;99.90;;;;;;5013834;28;20373;-77
2022/02/15 01:14:10;;;;;;;8.43;6.28;;;5.90;99.90;;;;;;5020163;28;20068;-76
2022/02/15 01:16:35;;;;;;;8.63;5.90;;;5.80;99.90;;;;;;5017940;28;20108;-76
2022/02/15 01:19:01;;;;;;;8.13;6.20;;;5.80;99.90;;;;;;5014766;28;20071;-77
2022/02/15 01:21:26;;;;;;;8.15;6.35;;;5.70;99.90;;;;;;5019014;28;20041;-77
2022/02/15 01:23:52;;;;;;;10.95;7.20;;;5.70;99.90;;;;;;5017392;28;20018;-77
2022/02/15 01:26:17;;;;;;;10.30;7.00;;;5.70;99.90;;;;;;5020193;28;20018;-77
2022/02/15 01:28:43;;;;;;;10.75;7.13;;;5.80;99.90;;;;;;5019483;28;20022;-76
2022/02/15 01:31:09;;;;;;;10.23;7.78;;;5.70;99.90;;;;;;5017290;28;20032;-76
2022/02/15 01:33:34;;;;;;;10.50;7.68;;;5.60;99.90;;;;;;5015091;28;20029;-77
2022/02/15 01:36:00;;;;;;;13.02;7.82;;;5.60;99.90;;;;;;5020986;28;20059;-77
2022/02/15 01:38:26;;;;;;;10.80;8.15;;;5.70;99.90;;;;;;5021864;28;20032;-77
2022/02/15 01:40:52;;;;;;;12.32;7.75;;;5.60;99.90;;;;;;5018106;28;20030;-77
2022/02/15 01:43:17;;;;;;;14.35;10.10;;;5.60;99.90;;;;;;5017071;28;20468;-77
2022/02/15 01:45:43;;;;;;;13.88;9.07;;;5.50;99.90;;;;;;5011912;28;20036;-77
2022/02/15 01:48:10;;;;;;;13.88;8.65;;;5.50;99.90;;;;;;5016907;28;20498;-77
2022/02/15 01:50:35;;;;;;;13.45;9.68;;;5.50;99.90;;;;;;5014632;28;20475;-77
2022/02/15 01:53:01;;;;;;;15.25;10.05;;;5.40;99.90;;;;;;5014137;28;20084;-77
2022/02/15 01:55:27;;;;;;;14.13;9.27;;;5.40;99.90;;;;;;5013269;28;20026;-77
2022/02/15 01:57:52;;;;;;;16.15;12.13;;;5.40;99.90;;;;;;5019888;28;20052;-77
2022/02/15 02:00:19;;;;;;;14.23;10.57;;;5.40;99.90;;;;;;5020324;28;20088;-77
2022/02/15 02:02:45;;;;;;;15.30;11.23;;;5.30;99.90;;;;;;5010247;28;20033;-77
2022/02/15 02:07:56;;;;;;;14.57;10.88;;;5.30;99.90;;;;;;5015346;28;20029;-76
2022/02/15 02:10:22;;;;;;;17.88;11.43;;;5.30;99.90;;;;;;5027550;28;20045;-76
2022/02/15 02:12:47;;;;;;;19.15;12.75;;;5.30;99.90;;;;;;5019430;28;20030;-76
2022/02/15 02:15:22;;;;;;;16.98;11.95;;;5.30;99.90;;;;;;5017753;28;20032;-76
2022/02/15 02:17:48;;;;;;;18.67;11.95;;;5.30;99.90;;;;;;5015221;28;20072;-77
2022/02/15 02:20:14;;;;;;;16.90;11.98;;;5.30;99.90;;;;;;5013773;28;20022;-76
2022/02/15 02:22:40;;;;;;;19.73;13.07;;;5.40;99.90;;;;;;5015301;28;20365;-76
2022/02/15 02:25:09;;;;;;;14.93;11.63;;;5.30;99.90;;;;;;5015427;28;20392;-75
2022/02/15 02:27:34;;;;;;;20.58;13.38;;;5.40;99.90;;;;;;5015309;28;20022;-76
2022/02/15 02:30:00;;;;;;;17.27;12.60;;;5.50;99.90;;;;;;5019249;28;20116;-76
2022/02/15 02:32:28;;;;;;;18.67;13.57;;;5.40;99.90;;;;;;5014958;28;20105;-76
2022/02/15 02:34:56;;;;;;;22.83;14.95;;;5.50;99.90;;;;;;5017095;28;20479;-76
2022/02/15 02:37:21;;;;;;;22.58;15.38;;;5.50;99.90;;;;;;5015068;28;20445;-76
2022/02/15 02:39:52;;;;;;;22.10;15.73;;;5.50;99.90;;;;;;5015009;28;20068;-76
2022/02/15 02:42:20;;;;;;;21.48;15.88;;;5.50;99.90;;;;;;5009398;28;20022;-75
2022/02/15 02:44:47;;;;;;;19.67;14.20;;;5.50;99.90;;;;;;5014398;28;20030;-76
2022/02/15 02:47:13;;;;;;;16.90;13.95;;;5.50;99.90;;;;;;5013337;28;20029;-76
2022/02/15 02:49:39;;;;;;;19.10;14.60;;;5.50;99.90;;;;;;5014854;28;20029;-76
2022/02/15 02:52:07;;;;;;;19.20;14.60;;;5.60;99.90;;;;;;5014638;28;20022;-76
2022/02/15 02:54:33;;;;;;;20.55;15.32;;;5.60;99.90;;;;;;5013484;28;20072;-76
2022/02/15 02:57:01;;;;;;;24.00;16.40;;;5.60;99.90;;;;;;5013668;28;20033;-76
2022/02/15 02:59:27;;;;;;;25.15;15.55;;;5.60;99.90;;;;;;5014720;28;20068;-76
2022/02/15 03:01:53;;;;;;;22.52;15.68;;;5.60;99.90;;;;;;5014135;28;20030;-76
2022/02/15 03:04:19;;;;;;;21.33;15.63;;;5.60;99.90;;;;;;5017019;28;20402;-76
2022/02/15 03:06:45;;;;;;;23.90;16.50;;;5.60;99.90;;;;;;5017499;28;20033;-76
2022/02/15 03:09:10;;;;;;;23.55;15.65;;;5.60;99.90;;;;;;5020833;28;20034;-76
2022/02/15 03:11:36;;;;;;;19.65;14.18;;;5.60;99.90;;;;;;5016636;28;20029;-76
2022/02/15 03:14:01;;;;;;;24.23;16.40;;;5.60;99.90;;;;;;5017317;28;20108;-76
2022/02/15 03:16:28;;;;;;;23.45;16.90;;;5.60;99.90;;;;;;5018486;28;20034;-75
2022/02/15 03:18:54;;;;;;;21.50;15.43;;;5.60;99.90;;;;;;5012401;28;20483;-75
2022/02/15 03:21:20;;;;;;;21.13;15.93;;;5.60;99.90;;;;;;5012950;28;20127;-75
2022/02/15 03:23:46;;;;;;;24.08;15.98;;;5.70;99.90;;;;;;5014276;28;20507;-76
2022/02/15 03:26:12;;;;;;;20.88;15.27;;;5.50;99.90;;;;;;5012947;28;20104;-76
2022/02/15 03:28:38;;;;;;;26.10;17.25;;;5.50;99.90;;;;;;5016998;28;20021;-75
2022/02/15 03:31:04;;;;;;;23.77;17.00;;;5.40;99.90;;;;;;5013860;28;20383;-75
2022/02/15 03:33:31;;;;;;;23.17;17.35;;;5.30;99.90;;;;;;5013780;28;20041;-75
2022/02/15 03:35:56;;;;;;;26.83;17.30;;;5.30;99.90;;;;;;5015831;28;20400;-75
2022/02/15 03:38:22;;;;;;;24.73;17.38;;;5.30;99.90;;;;;;5019112;28;20038;-76
2022/02/15 03:43:32;;;;;;;26.00;18.08;;;5.20;99.90;;;;;;5020234;28;20037;-75
2022/02/15 03:45:57;;;;;;;24.38;16.80;;;5.30;99.90;;;;;;5012268;28;20033;-75
2022/02/15 03:48:23;;;;;;;23.58;17.42;;;5.40;99.90;;;;;;5012186;28;20022;-75
2022/02/15 03:50:49;;;;;;;26.80;19.58;;;5.40;99.90;;;;;;5011495;28;20127;-75
2022/02/15 03:53:15;;;;;;;27.02;18.33;;;5.50;99.90;;;;;;5013503;28;20096;-74
2022/02/15 03:55:44;;;;;;;28.85;19.38;;;5.40;99.90;;;;;;5013508;28;20756;-74
2022/02/15 03:58:09;;;;;;;28.02;19.02;;;5.40;99.90;;;;;;5013589;28;20392;-74
2022/02/15 04:00:35;;;;;;;22.33;17.10;;;5.40;99.90;;;;;;5013198;28;20030;-76
2022/02/15 04:03:01;;;;;;;24.92;17.65;;;5.40;99.90;;;;;;5025639;28;20025;-77
2022/02/15 04:05:27;;;;;;;26.13;19.67;;;5.40;99.90;;;;;;5009664;28;20049;-77
2022/02/15 04:07:52;;;;;;;26.92;19.02;;;5.40;99.90;;;;;;5005973;28;20109;-76
2022/02/15 04:10:19;;;;;;;28.33;20.02;;;5.40;99.90;;;;;;5000292;28;20022;-76
2022/02/15 04:12:45;;;;;;;27.38;20.17;;;5.40;99.90;;;;;;5001436;28;20114;-76
2022/02/15 04:15:11;;;;;;;28.13;19.42;;;5.30;99.90;;;;;;5012352;28;20033;-75
2022/02/15 04:17:37;;;;;;;29.27;19.83;;;5.40;99.90;;;;;;5001350;28;20121;-75
2022/02/15 04:20:03;;;;;;;28.85;19.27;;;5.40;99.90;;;;;;5010705;28;20466;-76
2022/02/15 04:22:28;;;;;;;31.77;21.52;;;5.30;99.90;;;;;;5013053;28;20053;-76
2022/02/15 04:24:54;;;;;;;36.63;24.02;;;5.20;99.90;;;;;;5006921;28;20488;-76
2022/02/15 04:27:20;;;;;;;36.25;23.17;;;5.20;99.90;;;;;;4992623;28;20049;-75
2022/02/15 04:29:46;;;;;;;32.92;20.70;;;5.20;99.90;;;;;;5005730;28;20164;-76
2022/02/15 04:32:11;;;;;;;23.17;17.67;;;5.20;99.90;;;;;;5004903;28;20545;-76
2022/02/15 04:34:39;;;;;;;23.58;17.77;;;5.20;99.90;;;;;;4999790;28;20034;-76
2022/02/15 04:37:04;;;;;;;24.70;18.40;;;5.10;99.90;;;;;;5001339;28;20023;-76
2022/02/15 04:39:30;;;;;;;26.48;17.88;;;5.10;99.90;;;;;;5005278;28;20180;-76
2022/02/15 04:41:55;;;;;;;28.85;19.67;;;5.10;99.90;;;;;;5004374;28;20088;-76
2022/02/15 04:44:21;;;;;;;28.92;19.30;;;4.90;99.90;;;;;;4999638;28;20033;-76
2022/02/15 04:46:46;;;;;;;28.45;19.45;;;5.00;99.90;;;;;;5001743;28;20412;-75
2022/02/15 04:49:12;;;;;;;31.65;20.73;;;5.00;99.90;;;;;;4993197;28;20034;-73
2022/02/15 04:51:37;;;;;;;25.50;18.65;;;5.00;99.90;;;;;;4991831;28;20121;-75
2022/02/15 04:54:04;;;;;;;30.38;20.83;;;5.10;99.90;;;;;;5011294;28;20022;-75
2022/02/15 04:56:29;;;;;;;29.13;20.90;;;4.90;99.90;;;;;;5001057;28;20026;-76
2022/02/15 04:58:55;;;;;;;31.33;20.90;;;5.00;99.90;;;;;;5014718;28;20446;-76
2022/02/15 05:01:21;;;;;;;31.83;20.52;;;4.80;99.90;;;;;;5019299;28;20435;-76
2022/02/15 05:03:47;;;;;;;32.08;21.05;;;4.70;99.90;;;;;;5007391;28;20023;-76
2022/02/15 05:06:13;;;;;;;31.40;21.35;;;4.80;99.90;;;;;;5014311;28;20099;-75
2022/02/15 05:08:38;;;;;;;32.25;21.42;;;4.80;99.90;;;;;;5009431;28;20089;-76
2022/02/15 05:11:04;;;;;;;29.25;20.00;;;4.80;99.90;;;;;;5002552;28;20049;-75
2022/02/15 05:13:29;;;;;;;28.73;20.80;;;4.80;99.90;;;;;;5021031;28;20108;-75
2022/02/15 05:15:55;;;;;;;27.35;20.52;;;4.80;99.90;;;;;;5013883;28;20033;-75
2022/02/15 05:18:20;;;;;;;28.40;20.63;;;4.70;99.90;;;;;;5013016;28;20450;-76
2022/02/15 05:20:46;;;;;;;27.90;20.13;;;4.70;99.90;;;;;;5010624;28;20022;-76
2022/02/15 05:23:11;;;;;;;30.15;20.65;;;4.70;99.90;;;;;;5016537;28;20029;-75
2022/02/15 05:25:37;;;;;;;30.35;20.02;;;4.70;99.90;;;;;;5019612;28;20025;-75
2022/02/15 05:28:02;;;;;;;29.00;20.10;;;4.70;99.90;;;;;;5007880;28;20022;-76
2022/02/15 05:30:29;;;;;;;29.52;19.73;;;4.70;99.90;;;;;;5003066;28;20026;-77
2022/02/15 05:32:54;;;;;;;24.23;18.13;;;4.60;99.90;;;;;;4997800;28;20068;-76
2022/02/15 05:35:20;;;;;;;32.22;21.63;;;4.70;99.90;;;;;;4999729;28;20062;-77
2022/02/15 05:37:46;;;;;;;31.63;21.25;;;4.70;99.90;;;;;;5004450;28;20029;-76
2022/02/15 05:40:13;;;;;;;32.55;21.33;;;4.60;99.90;;;;;;5002806;28;20105;-76
2022/02/15 05:42:39;;;;;;;49.78;35.00;;;4.50;99.90;;;;;;5002652;28;20083;-76
2022/02/15 05:45:05;;;;;;;100.95;66.53;;;4.50;99.90;;;;;;5020817;28;20026;-77
2022/02/15 05:47:31;;;;;;;64.93;43.50;;;4.50;99.90;;;;;;4998519;28;20514;-77
2022/02/15 05:52:41;;;;;;;37.28;23.85;;;4.30;99.90;;;;;;4999756;28;20037;-78
2022/02/15 05:55:07;;;;;;;34.45;22.55;;;4.30;99.90;;;;;;5010613;28;20034;-77
2022/02/15 05:57:33;;;;;;;41.25;25.35;;;4.30;99.90;;;;;;4990965;28;20400;-76
2022/02/15 05:59:59;;;;;;;44.53;30.38;;;4.30;99.90;;;;;;5005092;28;20022;-76
2022/02/15 06:02:25;;;;;;;38.55;31.95;;;4.30;99.90;;;;;;4999481;28;20026;-77
2022/02/15 06:04:52;;;;;;;35.33;23.55;;;4.30;99.90;;;;;;4998883;28;20436;-76
2022/02/15 06:07:17;;;;;;;41.45;25.73;;;4.30;99.90;;;;;;5004567;28;20058;-76
2022/02/15 06:09:43;;;;;;;31.70;21.73;;;4.30;99.90;;;;;;5005259;28;20034;-75
2022/02/15 06:12:09;;;;;;;38.72;23.88;;;4.40;99.90;;;;;;4999007;28;20030;-76
2022/02/15 06:14:35;;;;;;;33.92;23.33;;;4.30;99.90;;;;;;4998546;28;20373;-76
2022/02/15 06:17:01;;;;;;;31.92;22.13;;;4.30;99.90;;;;;;5004533;28;20042;-76
2022/02/15 06:19:27;;;;;;;35.22;22.88;;;4.30;99.90;;;;;;5005346;28;20022;-76
2022/02/15 06:21:52;;;;;;;41.80;24.83;;;4.30;99.90;;;;;;4998856;28;20568;-76
2022/02/15 06:24:20;;;;;;;37.97;25.10;;;4.30;99.90;;;;;;5011379;28;20026;-76
2022/02/15 06:26:46;;;;;;;36.35;25.30;;;4.20;99.90;;;;;;4990752;28;20027;-76
2022/02/15 06:29:12;;;;;;;34.58;22.92;;;4.30;99.90;;;;;;5005214;28;20032;-77
2022/02/15 06:31:37;;;;;;;41.85;26.40;;;4.30;99.90;;;;;;4991773;28;20034;-77
2022/02/15 06:34:05;;;;;;;35.13;24.15;;;4.40;99.90;;;;;;4992784;28;20062;-76
2022/02/15 06:36:31;;;;;;;40.28;24.77;;;4.30;99.90;;;;;;5003922;28;20022;-76
2022/02/15 06:38:57;;;;;;;42.67;26.05;;;4.30;99.90;;;;;;5004862;28;20037;-76
2022/02/15 06:41:22;;;;;;;43.30;27.88;;;4.40;99.90;;;;;;4999215;28;20472;-75
2022/02/15 06:43:48;;;;;;;32.90;23.85;;;4.30;99.90;;;;;;4997020;28;20033;-76
2022/02/15 06:46:13;;;;;;;33.78;23.27;;;4.30;99.90;;;;;;5003769;28;20481;-76
2022/02/15 06:48:39;;;;;;;35.63;23.30;;;4.40;99.90;;;;;;5005067;28;20027;-76
2022/02/15 06:51:04;;;;;;;37.03;23.92;;;4.30;99.90;;;;;;4998520;28;20030;-76
2022/02/15 06:53:30;;;;;;;35.70;23.02;;;4.30;99.90;;;;;;5000620;28;20042;-76
2022/02/15 06:55:56;;;;;;;38.50;25.65;;;4.40;99.90;;;;;;5027650;28;20052;-75
2022/02/15 06:58:22;;;;;;;33.60;23.02;;;4.50;99.90;;;;;;5013197;28;20687;-76
2022/02/15 07:00:47;;;;;;;32.83;22.48;;;4.40;99.90;;;;;;5001950;28;20038;-76
2022/02/15 07:03:13;;;;;;;33.53;22.70;;;4.50;99.90;;;;;;5000328;28;20110;-77
2022/02/15 07:05:38;;;;;;;37.88;23.40;;;4.50;99.90;;;;;;5027732;28;20479;-76
2022/02/15 07:08:05;;;;;;;30.05;20.75;;;4.50;99.90;;;;;;5001619;28;20101;-76
2022/02/15 07:10:32;;;;;;;31.42;21.35;;;4.50;99.90;;;;;;4995042;28;20023;-77
2022/02/15 07:12:58;;;;;;;30.75;20.38;;;4.50;99.90;;;;;;5008267;28;20022;-76
2022/02/15 07:15:24;;;;;;;31.92;21.20;;;4.60;99.90;;;;;;5014462;28;20494;-77
2022/02/15 07:17:49;;;;;;;30.67;22.23;;;4.60;99.90;;;;;;5001043;28;20037;-77
2022/02/15 07:20:15;;;;;;;30.95;21.42;;;4.70;99.90;;;;;;4994815;28;20534;-77
2022/02/15 07:22:41;;;;;;;27.83;19.88;;;4.60;99.90;;;;;;5003407;28;20026;-77
2022/02/15 07:25:08;;;;;;;33.60;22.23;;;4.70;99.90;;;;;;5013870;28;20507;-77
2022/02/15 07:27:33;;;;;;;31.05;21.20;;;4.70;99.90;;;;;;5019664;28;20057;-77
2022/02/15 07:29:59;;;;;;;27.02;19.98;;;4.70;99.90;;;;;;5022184;28;20030;-78
2022/02/15 07:32:24;;;;;;;27.42;20.30;;;4.70;99.90;;;;;;5012971;28;20049;-78
2022/02/15 07:34:52;;;;;;;27.25;18.98;;;4.70;99.90;;;;;;5014485;28;20101;-78
2022/02/15 07:37:19;;;;;;;29.38;19.45;;;4.70;99.90;;;;;;5001253;28;20034;-77
2022/02/15 07:39:45;;;;;;;28.75;19.60;;;4.70;99.90;;;;;;5006583;28;20026;-77
2022/02/15 07:42:10;;;;;;;31.85;22.60;;;4.80;99.90;;;;;;5007046;28;20033;-77
2022/02/15 07:44:36;;;;;;;33.45;23.38;;;4.80;99.90;;;;;;5027682;28;20026;-77
2022/02/15 07:47:02;;;;;;;32.63;23.38;;;4.90;99.90;;;;;;5001574;28;20365;-77
2022/02/15 07:49:27;;;;;;;34.53;23.02;;;4.90;99.90;;;;;;4994336;28;20065;-78
2022/02/15 07:51:53;;;;;;;38.15;25.17;;;4.90;99.90;;;;;;5006090;28;20021;-75
2022/02/15 07:54:20;;;;;;;39.28;25.75;;;5.00;99.90;;;;;;4999618;28;20033;-76
2022/02/15 07:56:46;;;;;;;42.20;28.65;;;5.00;99.90;;;;;;5000660;28;20061;-75
2022/02/15 07:59:12;;;;;;;36.38;24.77;;;5.00;99.90;;;;;;5006878;28;20026;-75
2022/02/15 08:01:38;;;;;;;28.20;20.85;;;5.00;99.90;;;;;;5007070;28;20143;-75
2022/02/15 08:04:05;;;;;;;30.30;22.13;;;5.10;99.90;;;;;;4999458;28;20494;-75
2022/02/15 08:06:31;;;;;;;28.02;20.50;;;5.10;99.90;;;;;;4998967;28;20014;-75
2022/02/15 08:08:57;;;;;;;32.75;20.92;;;5.10;99.90;;;;;;5005702;28;20044;-76
2022/02/15 08:11:24;;;;;;;32.50;22.08;;;5.10;99.90;;;;;;5006842;28;20024;-75
2022/02/15 08:13:51;;;;;;;30.75;21.90;;;5.10;99.90;;;;;;5005228;28;20026;-75
2022/02/15 08:16:17;;;;;;;28.40;21.25;;;5.10;99.90;;;;;;5006918;28;20033;-75
2022/02/15 08:18:43;;;;;;;32.10;21.92;;;5.10;99.90;;;;;;5020938;28;20030;-75
2022/02/15 08:21:10;;;;;;;32.78;23.27;;;5.20;99.90;;;;;;5016315;28;20030;-75
2022/02/15 08:23:36;;;;;;;35.67;24.23;;;5.20;99.90;;;;;;5018762;28;20446;-75
2022/02/15 08:26:04;;;;;;;33.40;24.30;;;5.20;99.90;;;;;;5012432;28;20080;-75
2022/02/15 08:28:31;;;;;;;64.70;33.58;;;5.20;99.90;;;;;;5026199;28;20022;-75
2022/02/15 08:30:57;;;;;;;45.67;30.10;;;5.30;99.90;;;;;;5025892;28;20030;-75
2022/02/15 08:33:22;;;;;;;35.38;25.30;;;5.30;99.90;;;;;;5026250;28;20112;-75
2022/02/15 08:35:48;;;;;;;33.67;22.75;;;5.30;99.90;;;;;;5015408;28;20030;-75
2022/02/15 08:38:13;;;;;;;29.52;22.42;;;5.30;99.90;;;;;;5011415;28;20443;-76
2022/02/15 08:40:39;;;;;;;32.05;21.50;;;5.40;99.90;;;;;;5015005;28;20097;-76
2022/02/15 08:43:04;;;;;;;28.50;20.70;;;5.40;99.90;;;;;;5020258;28;20033;-75
2022/02/15 08:45:30;;;;;;;29.48;20.88;;;5.40;99.90;;;;;;5017595;28;20108;-75
2022/02/15 08:47:55;;;;;;;31.63;21.33;;;5.50;99.90;;;;;;5019323;28;20034;-75
2022/02/15 08:50:21;;;;;;;26.58;19.25;;;5.40;99.90;;;;;;5015238;28;20034;-75
2022/02/15 08:52:48;;;;;;;23.65;18.38;;;5.50;99.90;;;;;;5019019;28;20033;-75
2022/02/15 08:55:14;;;;;;;26.42;18.88;;;5.50;99.90;;;;;;5020575;28;20017;-75
2022/02/15 08:57:40;;;;;;;26.92;19.30;;;5.50;99.90;;;;;;5023963;28;20510;-75
2022/02/15 09:00:08;;;;;;;26.98;19.15;;;5.60;99.90;;;;;;5026253;28;20045;-75
2022/02/15 09:02:37;;;;;;;23.67;18.88;;;5.60;99.90;;;;;;5018886;28;20365;-75
2022/02/15 09:05:04;;;;;;;23.58;18.52;;;5.60;99.90;;;;;;5018377;28;20022;-75
2022/02/15 09:07:30;;;;;;;24.50;17.95;;;5.60;99.90;;;;;;5023835;28;20030;-75
2022/02/15 09:09:55;;;;;;;22.25;16.27;;;5.70;99.90;;;;;;5023277;28;20032;-75
2022/02/15 09:12:21;;;;;;;22.75;16.40;;;5.70;99.90;;;;;;5018834;28;20022;-75
2022/02/15 09:14:48;;;;;;;24.85;17.63;;;5.70;99.90;;;;;;5013135;28;20601;-75
2022/02/15 09:17:13;;;;;;;23.00;16.92;;;5.80;99.90;;;;;;5015922;28;20022;-76
2022/02/15 09:19:39;;;;;;;21.80;16.42;;;5.90;99.90;;;;;;5016334;28;20029;-75
2022/02/15 09:22:05;;;;;;;20.40;16.25;;;5.90;99.90;;;;;;5017129;28;20026;-76
2022/02/15 09:24:31;;;;;;;18.52;14.10;;;5.90;99.90;;;;;;5017065;28;20025;-75
2022/02/15 09:26:56;;;;;;;20.10;14.85;;;6.00;99.90;;;;;;5013902;28;20022;-77
2022/02/15 09:29:22;;;;;;;16.90;13.48;;;6.10;99.90;;;;;;5021523;28;20030;-75
2022/02/15 09:31:48;;;;;;;16.58;13.90;;;6.20;99.90;;;;;;5014431;28;20095;-76
2022/02/15 09:34:14;;;;;;;18.42;14.75;;;6.30;99.90;;;;;;5013859;28;20022;-75
2022/02/15 09:36:40;;;;;;;19.42;14.20;;;6.30;99.90;;;;;;5020438;28;20104;-75
2022/02/15 09:39:07;;;;;;;18.77;15.02;;;6.40;99.90;;;;;;5012475;28;20562;-75
2022/02/15 09:41:36;;;;;;;17.35;13.27;;;6.30;99.90;;;;;;5023100;28;20075;-76
2022/02/15 09:44:05;;;;;;;15.70;13.07;;;6.40;99.90;;;;;;5029700;28;20414;-76
2022/02/15 09:46:33;;;;;;;16.73;12.90;;;6.40;99.90;;;;;;5002765;28;20129;-76
2022/02/15 09:49:01;;;;;;;14.98;12.23;;;6.60;99.90;;;;;;5004708;28;20076;-76
2022/02/15 09:51:27;;;;;;;15.05;11.98;;;6.70;99.90;;;;;;4999917;28;20029;-77
2022/02/15 09:53:53;;;;;;;15.63;11.98;;;6.70;99.90;;;;;;5005472;28;20034;-76
2022/02/15 09:56:19;;;;;;;16.75;13.07;;;6.70;99.90;;;;;;5001807;28;20037;-76
2022/02/15 09:58:45;;;;;;;13.20;11.40;;;6.80;99.90;;;;;;5011852;28;20468;-77
2022/02/15 10:01:12;;;;;;;16.95;12.55;;;6.80;99.90;;;;;;5010902;28;20037;-76
2022/02/15 10:03:48;;;;;;;15.75;11.80;;;6.80;99.90;;;;;;5007974;28;20034;-76
2022/02/15 10:06:13;;;;;;;14.43;11.20;;;6.90;99.90;;;;;;5005177;28;20045;-76
2022/02/15 10:08:39;;;;;;;13.93;11.85;;;6.90;99.90;;;;;;5008534;28;20128;-76
2022/02/15 10:11:13;;;;;;;12.93;10.35;;;7.00;99.90;;;;;;5003266;28;20558;-77
2022/02/15 10:13:46;;;;;;;13.88;11.40;;;7.00;99.90;;;;;;4998490;28;20032;-77
2022/02/15 10:16:12;;;;;;;13.38;11.07;;;7.10;99.90;;;;;;4997446;28;20030;-76
2022/02/15 10:18:41;;;;;;;14.10;10.93;;;7.10;99.90;;;;;;5003556;28;20026;-77
2022/02/15 10:21:07;;;;;;;14.02;9.70;;;7.10;99.90;;;;;;5003839;28;20030;-77
2022/02/15 10:23:34;;;;;;;11.80;9.18;;;7.00;99.90;;;;;;4997864;28;20029;-78
2022/02/15 10:26:00;;;;;;;9.48;8.50;;;7.00;99.90;;;;;;5020148;28;20033;-76
2022/02/15 10:28:28;;;;;;;9.90;8.20;;;7.00;99.90;;;;;;5028187;28;20585;-77
2022/02/15 10:30:58;;;;;;;7.72;6.90;;;7.10;99.90;;;;;;5024943;28;20021;-76
2022/02/15 10:33:29;;;;;;;9.50;7.13;;;7.00;99.90;;;;;;5032374;28;20083;-77
2022/02/15 10:36:00;;;;;;;8.10;6.68;;;7.00;99.90;;;;;;5016202;28;20030;-77
2022/02/15 10:38:28;;;;;;;10.05;7.03;;;6.90;99.90;;;;;;5017467;28;20029;-77
2022/02/15 10:40:58;;;;;;;8.88;6.70;;;6.80;99.90;;;;;;5021703;28;20026;-77
2022/02/15 10:43:26;;;;;;;7.55;5.85;;;6.80;99.90;;;;;;5017810;28;20096;-77
2022/02/15 10:45:51;;;;;;;5.93;5.32;;;6.80;99.90;;;;;;5010758;28;20115;-77
2022/02/15 10:48:27;;;;;;;5.85;5.30;;;6.80;99.90;;;;;;5019932;28;20523;-77
2022/02/15 10:50:55;;;;;;;5.93;4.90;;;6.80;99.90;;;;;;5021425;28;20498;-77
2022/02/15 10:53:22;;;;;;;6.40;4.90;;;6.80;99.90;;;;;;5024884;28;20033;-77
2022/02/15 10:55:49;;;;;;;7.43;4.72;;;6.90;99.90;;;;;;5010932;28;20509;-77
2022/02/15 10:58:14;;;;;;;6.57;4.28;;;7.00;99.90;;;;;;5031072;28;20017;-77
2022/02/15 11:00:42;;;;;;;5.05;4.50;;;7.10;99.90;;;;;;5026988;28;20026;-77
2022/02/15 11:03:10;;;;;;;6.55;5.05;;;7.20;99.90;;;;;;5056712;23;20046;-71
2022/02/15 11:05:35;;;;;;;9.57;5.00;;;7.30;99.90;;;;;;5028668;28;20021;-70
2022/02/15 11:08:01;;;;;;;6.93;4.90;;;7.30;99.90;;;;;;5032596;28;20117;-70
2022/02/15 11:10:39;;;;;;;6.80;5.00;;;7.50;99.90;;;;;;5049348;28;20112;-71
2022/02/15 11:13:05;;;;;;;6.93;4.60;;;7.60;99.90;;;;;;5021917;28;20080;-71
2022/02/15 11:15:33;;;;;;;7.22;5.38;;;7.70;99.90;;;;;;5014345;28;20021;-70
2022/02/15 11:18:07;;;;;;;7.55;5.63;;;7.60;99.90;;;;;;5011800;28;20029;-70
2022/02/15 11:20:51;;;;;;;6.10;5.45;;;7.50;99.90;;;;;;5009388;28;20030;-71
2022/02/15 11:23:18;;;;;;;9.73;6.07;;;7.40;99.90;;;;;;5006495;28;20022;-71
2022/02/15 11:25:45;;;;;;;10.57;5.20;;;7.50;99.90;;;;;;5014231;28;20068;-70
2022/02/15 11:28:14;;;;;;;6.07;5.18;;;7.50;99.90;;;;;;5012006;28;20081;-70
2022/02/15 11:30:44;;;;;;;5.97;4.85;;;7.50;99.90;;;;;;5012118;28;20076;-70
2022/02/15 11:33:09;;;;;;;7.57;5.40;;;7.40;99.90;;;;;;5023034;28;20031;-71
2022/02/15 11:35:35;;;;;;;5.57;5.00;;;7.50;99.90;;;;;;5014105;28;20108;-70
2022/02/15 11:38:27;;;;;;;7.25;5.63;;;7.60;99.90;;;;;;5014451;28;20476;-70
2022/02/15 11:41:11;;;;;;;6.70;5.60;;;7.70;99.90;;;;;;5023255;28;20038;-70
2022/02/15 11:43:37;;;;;;;6.93;5.50;;;7.80;99.90;;;;;;5026619;28;20135;-70
2022/02/15 11:46:03;;;;;;;7.53;5.40;;;7.80;99.90;;;;;;5010686;28;20491;-70
2022/02/15 11:48:38;;;;;;;6.70;5.05;;;8.10;99.90;;;;;;5013231;28;20049;-70
2022/02/15 11:51:03;;;;;;;7.00;4.82;;;8.00;99.90;;;;;;5026805;28;20033;-70
2022/02/15 11:53:29;;;;;;;6.65;4.72;;;7.80;99.90;;;;;;5012887;28;20026;-70
2022/02/15 11:55:55;;;;;;;7.05;4.97;;;7.50;99.90;;;;;;5023081;28;20109;-71
2022/02/15 11:58:21;;;;;;;5.60;4.70;;;7.40;99.90;;;;;;5025163;28;20030;-71
2022/02/15 12:00:47;;;;;;;6.25;4.80;;;7.40;99.90;;;;;;5010778;28;20068;-71
2022/02/15 12:03:17;;;;;;;7.75;5.88;;;7.30;99.90;;;;;;5010008;28;20529;-71
2022/02/15 12:05:45;;;;;;;8.05;5.03;;;7.20;99.90;;;;;;5008794;28;20025;-71
2022/02/15 12:08:12;;;;;;;6.55;4.90;;;7.10;99.90;;;;;;5009901;28;20029;-71
2022/02/15 12:10:41;;;;;;;9.38;5.85;;;7.10;99.90;;;;;;5013040;28;20113;-70
2022/02/15 12:13:22;;;;;;;6.50;5.57;;;7.10;99.90;;;;;;5013084;28;20440;-70
2022/02/15 12:15:51;;;;;;;7.10;5.60;;;7.10;99.90;;;;;;5028421;28;20180;-71
2022/02/15 12:18:28;;;;;;;6.70;6.00;;;7.10;99.90;;;;;;5011592;28;20045;-70
2022/02/15 12:20:53;;;;;;;6.68;5.72;;;7.20;99.90;;;;;;5012959;28;20080;-70
2022/02/15 12:23:25;;;;;;;7.75;6.35;;;7.50;99.90;;;;;;5014793;28;20021;-70
2022/02/15 12:25:51;;;;;;;7.90;5.57;;;7.50;99.90;;;;;;5019712;28;20037;-71
2022/02/15 12:28:24;;;;;;;7.78;6.93;;;7.50;99.90;;;;;;5012258;28;20419;-71
2022/02/15 12:30:51;;;;;;;7.20;6.00;;;7.50;99.90;;;;;;5010226;28;20029;-70
2022/02/15 12:33:20;;;;;;;8.68;6.55;;;7.50;99.90;;;;;;5012220;28;20087;-70
2022/02/15 12:35:55;;;;;;;7.95;6.65;;;7.40;99.90;;;;;;5011709;28;20030;-70
2022/02/15 12:38:21;;;;;;;9.18;6.65;;;7.40;99.90;;;;;;5011841;28;20035;-70
2022/02/15 12:40:47;;;;;;;13.20;8.98;;;7.40;99.90;;;;;;5012172;28;20041;-70
2022/02/15 12:43:12;;;;;;;7.53;6.68;;;7.40;99.90;;;;;;5011890;28;20026;-70
2022/02/15 12:45:45;;;;;;;8.65;6.88;;;7.30;99.90;;;;;;5011374;28;20029;-71
2022/02/15 12:48:11;;;;;;;10.25;6.80;;;7.20;99.90;;;;;;5011458;28;20503;-70